sensor_id;sensor_type;location;lat;lon;timestamp;pressure;altitude;pressure_sealevel;temperature;humidity
20160;BME280;50187;50.492;12.134;2023-07-31T00:01:13;97423.06;;;22.94;48.07
20160;BME280;50187;50.492;12.134;2023-07-31T00:03:40;97426.44;;;22.96;48.15
20160;BME280;50187;50.492;12.134;2023-07-31T00:06:06;97420.19;;;22.96;48.05
20160;BME280;50187;50.492;12.134;2023-07-31T00:08:33;97413.88;;;22.95;47.92
20160;BME280;50187;50.492;12.134;2023-07-31T00:11:00;97417.66;;;22.94;47.86
20160;BME280;50187;50.492;12.134;2023-07-31T00:13:26;97411.38;;;22.94;47.90
20160;BME280;50187;50.492;12.134;2023-07-31T00:15:53;97420.38;;;22.94;47.75
20160;BME280;50187;50.492;12.134;2023-07-31T00:18:20;97422.22;;;22.94;47.84
20160;BME280;50187;50.492;12.134;2023-07-31T00:20:46;97414.94;;;22.94;47.86
20160;BME280;50187;50.492;12.134;2023-07-31T00:23:13;97416.78;;;22.94;48.06
20160;BME280;50187;50.492;12.134;2023-07-31T00:25:40;97414.06;;;22.94;47.97
20160;BME280;50187;50.492;12.134;2023-07-31T00:28:06;97409.50;;;22.94;47.90
20160;BME280;50187;50.492;12.134;2023-07-31T00:30:33;97405.09;;;22.93;47.86
20160;BME280;50187;50.492;12.134;2023-07-31T00:33:00;97401.56;;;22.93;47.69
20160;BME280;50187;50.492;12.134;2023-07-31T00:35:26;97405.09;;;22.93;47.61
20160;BME280;50187;50.492;12.134;2023-07-31T00:37:53;97398.66;;;22.94;47.88
20160;BME280;50187;50.492;12.134;2023-07-31T00:40:19;97390.72;;;22.93;48.04
20160;BME280;50187;50.492;12.134;2023-07-31T00:42:46;97394.25;;;22.93;47.91
20160;BME280;50187;50.492;12.134;2023-07-31T00:45:13;97391.53;;;22.93;47.87
20160;BME280;50187;50.492;12.134;2023-07-31T00:47:40;97388.16;;;22.91;47.60
20160;BME280;50187;50.492;12.134;2023-07-31T00:50:07;97392.56;;;22.92;47.58
20160;BME280;50187;50.492;12.134;2023-07-31T00:52:35;97384.81;;;22.89;47.84
20160;BME280;50187;50.492;12.134;2023-07-31T00:55:02;97387.13;;;22.92;47.57
20160;BME280;50187;50.492;12.134;2023-07-31T00:57:30;97390.72;;;22.93;47.55
20160;BME280;50187;50.492;12.134;2023-07-31T00:59:58;97401.06;;;22.89;47.65
20160;BME280;50187;50.492;12.134;2023-07-31T01:02:24;97396.84;;;22.87;47.62
20160;BME280;50187;50.492;12.134;2023-07-31T01:04:51;97399.88;;;22.92;47.61
20160;BME280;50187;50.492;12.134;2023-07-31T01:10:23;97399.00;;;22.91;47.70
20160;BME280;50187;50.492;12.134;2023-07-31T01:12:53;97392.75;;;22.91;47.55
20160;BME280;50187;50.492;12.134;2023-07-31T01:15:20;97396.66;;;22.88;47.47
20160;BME280;50187;50.492;12.134;2023-07-31T01:17:47;97398.56;;;22.88;47.51
20160;BME280;50187;50.492;12.134;2023-07-31T01:20:17;97397.03;;;22.85;47.54
20160;BME280;50187;50.492;12.134;2023-07-31T01:22:54;97402.78;;;22.90;47.44
20160;BME280;50187;50.492;12.134;2023-07-31T01:31:23;97385.19;;;22.86;47.56
20160;BME280;50187;50.492;12.134;2023-07-31T01:33:53;97387.50;;;22.89;47.55
20160;BME280;50187;50.492;12.134;2023-07-31T01:36:21;97377.50;;;22.90;47.40
20160;BME280;50187;50.492;12.134;2023-07-31T01:38:48;97382.47;;;22.86;47.49
20160;BME280;50187;50.492;12.134;2023-07-31T01:41:17;97384.16;;;22.87;47.35
20160;BME280;50187;50.492;12.134;2023-07-31T01:43:45;97375.84;;;22.89;47.47
20160;BME280;50187;50.492;12.134;2023-07-31T01:46:12;97371.31;;;22.81;47.66
20160;BME280;50187;50.492;12.134;2023-07-31T01:48:39;97392.00;;;22.82;47.41
20160;BME280;50187;50.492;12.134;2023-07-31T01:51:05;97362.53;;;22.79;47.44
20160;BME280;50187;50.492;12.134;2023-07-31T01:53:32;97369.28;;;22.83;47.49
20160;BME280;50187;50.492;12.134;2023-07-31T01:55:59;97375.34;;;22.85;47.42
20160;BME280;50187;50.492;12.134;2023-07-31T01:58:25;97365.91;;;22.81;47.24
20160;BME280;50187;50.492;12.134;2023-07-31T02:00:52;97363.00;;;22.83;47.49
20160;BME280;50187;50.492;12.134;2023-07-31T02:03:19;97367.88;;;22.87;47.43
20160;BME280;50187;50.492;12.134;2023-07-31T02:05:47;97363.28;;;22.88;47.42
20160;BME280;50187;50.492;12.134;2023-07-31T02:08:13;97366.00;;;22.88;47.55
20160;BME280;50187;50.492;12.134;2023-07-31T02:10:40;97368.72;;;22.88;47.32
20160;BME280;50187;50.492;12.134;2023-07-31T02:13:07;97370.59;;;22.87;47.50
20160;BME280;50187;50.492;12.134;2023-07-31T02:15:34;97365.16;;;22.87;47.55
20160;BME280;50187;50.492;12.134;2023-07-31T02:18:01;97357.88;;;22.88;47.58
20160;BME280;50187;50.492;12.134;2023-07-31T02:20:28;97358.88;;;22.87;47.33
20160;BME280;50187;50.492;12.134;2023-07-31T02:22:54;97357.03;;;22.87;47.31
20160;BME280;50187;50.492;12.134;2023-07-31T02:25:21;97349.25;;;22.84;47.60
20160;BME280;50187;50.492;12.134;2023-07-31T02:27:47;97357.88;;;22.88;47.38
20160;BME280;50187;50.492;12.134;2023-07-31T02:30:14;97355.34;;;22.86;47.33
20160;BME280;50187;50.492;12.134;2023-07-31T02:32:41;97351.78;;;22.86;47.55
20160;BME280;50187;50.492;12.134;2023-07-31T02:35:08;97346.34;;;22.86;47.40
20160;BME280;50187;50.492;12.134;2023-07-31T02:37:34;97341.78;;;22.86;47.52
20160;BME280;50187;50.492;12.134;2023-07-31T02:40:01;97338.59;;;22.83;47.63
20160;BME280;50187;50.492;12.134;2023-07-31T02:42:28;97341.78;;;22.86;47.70
20160;BME280;50187;50.492;12.134;2023-07-31T02:44:55;97342.31;;;22.81;47.63
20160;BME280;50187;50.492;12.134;2023-07-31T02:47:22;97328.75;;;22.81;47.48
20160;BME280;50187;50.492;12.134;2023-07-31T02:49:49;97322.69;;;22.79;47.67
20160;BME280;50187;50.492;12.134;2023-07-31T02:52:16;97320.34;;;22.76;47.74
20160;BME280;50187;50.492;12.134;2023-07-31T02:54:43;97335.69;;;22.84;47.41
20160;BME280;50187;50.492;12.134;2023-07-31T02:57:09;97321.00;;;22.78;47.56
20160;BME280;50187;50.492;12.134;2023-07-31T02:59:36;97331.13;;;22.85;47.70
20160;BME280;50187;50.492;12.134;2023-07-31T03:02:03;97327.09;;;22.80;47.45
20160;BME280;50187;50.492;12.134;2023-07-31T03:04:30;97320.81;;;22.80;47.50
20160;BME280;50187;50.492;12.134;2023-07-31T03:06:56;97325.59;;;22.78;47.48
20160;BME280;50187;50.492;12.134;2023-07-31T03:09:23;97344.09;;;22.74;47.75
20160;BME280;50187;50.492;12.134;2023-07-31T03:11:49;97336.75;;;22.83;47.39
20160;BME280;50187;50.492;12.134;2023-07-31T03:14:16;97334.38;;;22.80;47.57
20160;BME280;50187;50.492;12.134;2023-07-31T03:16:44;97333.84;;;22.85;47.74
20160;BME280;50187;50.492;12.134;2023-07-31T03:19:10;97328.41;;;22.85;47.71
20160;BME280;50187;50.492;12.134;2023-07-31T03:21:37;97334.66;;;22.85;47.82
20160;BME280;50187;50.492;12.134;2023-07-31T03:24:04;97328.41;;;22.85;47.71
20160;BME280;50187;50.492;12.134;2023-07-31T03:26:33;97332.34;;;22.82;47.69
20160;BME280;50187;50.492;12.134;2023-07-31T03:29:00;97329.44;;;22.84;47.94
20160;BME280;50187;50.492;12.134;2023-07-31T03:31:28;97325.88;;;22.83;47.94
20160;BME280;50187;50.492;12.134;2023-07-31T03:33:55;97319.78;;;22.81;47.88
20160;BME280;50187;50.492;12.134;2023-07-31T03:36:21;97322.50;;;22.81;47.84
20160;BME280;50187;50.492;12.134;2023-07-31T03:38:48;97328.59;;;22.83;47.61
20160;BME280;50187;50.492;12.134;2023-07-31T03:41:14;97329.63;;;22.82;47.89
20160;BME280;50187;50.492;12.134;2023-07-31T03:43:46;97335.03;;;22.82;47.83
20160;BME280;50187;50.492;12.134;2023-07-31T03:46:13;97327.94;;;22.81;48.01
20160;BME280;50187;50.492;12.134;2023-07-31T03:48:39;97321.66;;;22.80;47.82
20160;BME280;50187;50.492;12.134;2023-07-31T03:51:06;97341.50;;;22.81;48.06
20160;BME280;50187;50.492;12.134;2023-07-31T03:53:33;97325.88;;;22.83;47.73
20160;BME280;50187;50.492;12.134;2023-07-31T03:55:59;97322.31;;;22.83;47.77
20160;BME280;50187;50.492;12.134;2023-07-31T03:58:26;97303.22;;;22.76;48.00
20160;BME280;50187;50.492;12.134;2023-07-31T04:00:52;97309.63;;;22.83;48.01
20160;BME280;50187;50.492;12.134;2023-07-31T04:03:19;97302.50;;;22.82;47.77
20160;BME280;50187;50.492;12.134;2023-07-31T04:05:46;97298.78;;;22.83;47.90
20160;BME280;50187;50.492;12.134;2023-07-31T04:08:12;97300.63;;;22.83;48.12
20160;BME280;50187;50.492;12.134;2023-07-31T04:10:39;97289.13;;;22.80;48.21
20160;BME280;50187;50.492;12.134;2023-07-31T04:13:05;97286.22;;;22.82;48.07
20160;BME280;50187;50.492;12.134;2023-07-31T04:15:32;97297.91;;;22.83;48.11
20160;BME280;50187;50.492;12.134;2023-07-31T04:17:58;97298.09;;;22.81;47.94
20160;BME280;50187;50.492;12.134;2023-07-31T04:20:25;97294.38;;;22.82;48.28
20160;BME280;50187;50.492;12.134;2023-07-31T04:22:51;97292.47;;;22.83;48.17
20160;BME280;50187;50.492;12.134;2023-07-31T04:25:18;97288.28;;;22.80;48.03
20160;BME280;50187;50.492;12.134;2023-07-31T04:27:45;97291.66;;;22.82;48.19
20160;BME280;50187;50.492;12.134;2023-07-31T04:30:11;97274.91;;;22.78;47.98
20160;BME280;50187;50.492;12.134;2023-07-31T04:32:38;97279.94;;;22.81;48.10
20160;BME280;50187;50.492;12.134;2023-07-31T04:35:05;97293.69;;;22.80;48.25
20160;BME280;50187;50.492;12.134;2023-07-31T04:37:32;97289.97;;;22.81;48.28
20160;BME280;50187;50.492;12.134;2023-07-31T04:39:59;97290.78;;;22.81;48.27
20160;BME280;50187;50.492;12.134;2023-07-31T04:42:25;97275.56;;;22.80;48.38
20160;BME280;50187;50.492;12.134;2023-07-31T04:44:52;97270.97;;;22.81;48.08
20160;BME280;50187;50.492;12.134;2023-07-31T04:47:19;97260.31;;;22.79;48.25
20160;BME280;50187;50.492;12.134;2023-07-31T04:49:46;97269.09;;;22.81;48.03
20160;BME280;50187;50.492;12.134;2023-07-31T04:52:12;97268.28;;;22.81;48.08
20160;BME280;50187;50.492;12.134;2023-07-31T04:54:39;97268.28;;;22.81;48.15
20160;BME280;50187;50.492;12.134;2023-07-31T04:57:06;97271.81;;;22.81;48.09
20160;BME280;50187;50.492;12.134;2023-07-31T04:59:32;97264.72;;;22.80;48.25
20160;BME280;50187;50.492;12.134;2023-07-31T05:01:59;97259.31;;;22.80;48.26
20160;BME280;50187;50.492;12.134;2023-07-31T05:04:26;97254.72;;;22.81;48.28
20160;BME280;50187;50.492;12.134;2023-07-31T05:06:52;97249.28;;;22.81;48.23
20160;BME280;50187;50.492;12.134;2023-07-31T05:09:19;97254.25;;;22.77;48.30
20160;BME280;50187;50.492;12.134;2023-07-31T05:11:45;97261.16;;;22.80;48.09
20160;BME280;50187;50.492;12.134;2023-07-31T05:14:12;97264.72;;;22.80;48.30
20160;BME280;50187;50.492;12.134;2023-07-31T05:16:39;97255.72;;;22.80;48.14
20160;BME280;50187;50.492;12.134;2023-07-31T05:19:06;97255.72;;;22.80;48.22
20160;BME280;50187;50.492;12.134;2023-07-31T05:21:33;97261.16;;;22.80;48.35
20160;BME280;50187;50.492;12.134;2023-07-31T05:23:59;97277.41;;;22.80;48.29
20160;BME280;50187;50.492;12.134;2023-07-31T05:26:26;97277.81;;;22.77;48.36
20160;BME280;50187;50.492;12.134;2023-07-31T05:28:53;97281.19;;;22.79;48.17
20160;BME280;50187;50.492;12.134;2023-07-31T05:31:19;97271.34;;;22.78;48.44
20160;BME280;50187;50.492;12.134;2023-07-31T05:33:47;97272.00;;;22.80;48.36
20160;BME280;50187;50.492;12.134;2023-07-31T05:36:13;97272.88;;;22.80;48.11
20160;BME280;50187;50.492;12.134;2023-07-31T05:38:40;97255.66;;;22.73;48.36
20160;BME280;50187;50.492;12.134;2023-07-31T05:41:08;97268.66;;;22.78;48.23
20160;BME280;50187;50.492;12.134;2023-07-31T05:43:35;97272.00;;;22.80;48.24
20160;BME280;50187;50.492;12.134;2023-07-31T05:46:02;97262.56;;;22.76;48.35
20160;BME280;50187;50.492;12.134;2023-07-31T05:48:32;97259.50;;;22.79;48.38
20160;BME280;50187;50.492;12.134;2023-07-31T05:51:00;97260.50;;;22.78;48.32
20160;BME280;50187;50.492;12.134;2023-07-31T05:53:27;97255.09;;;22.78;48.36
20160;BME280;50187;50.492;12.134;2023-07-31T05:55:53;97256.78;;;22.79;48.27
20160;BME280;50187;50.492;12.134;2023-07-31T05:58:20;97261.34;;;22.78;48.10
20160;BME280;50187;50.492;12.134;2023-07-31T06:00:46;97257.81;;;22.78;48.27
20160;BME280;50187;50.492;12.134;2023-07-31T06:03:13;97264.91;;;22.79;48.29
20160;BME280;50187;50.492;12.134;2023-07-31T06:05:40;97252.38;;;22.78;48.21
20160;BME280;50187;50.492;12.134;2023-07-31T06:08:06;97263.03;;;22.79;48.48
20160;BME280;50187;50.492;12.134;2023-07-31T06:10:33;97268.66;;;22.78;48.49
20160;BME280;50187;50.492;12.134;2023-07-31T06:13:01;97261.34;;;22.78;48.42
20160;BME280;50187;50.492;12.134;2023-07-31T06:15:27;97265.94;;;22.78;48.24
20160;BME280;50187;50.492;12.134;2023-07-31T06:17:54;97264.06;;;22.78;48.46
20160;BME280;50187;50.492;12.134;2023-07-31T06:20:21;97264.06;;;22.78;48.33
20160;BME280;50187;50.492;12.134;2023-07-31T06:22:47;97264.25;;;22.77;48.39
20160;BME280;50187;50.492;12.134;2023-07-31T06:25:14;97263.22;;;22.78;48.39
20160;BME280;50187;50.492;12.134;2023-07-31T06:27:42;97256.97;;;22.77;48.34
20160;BME280;50187;50.492;12.134;2023-07-31T06:30:09;97257.81;;;22.78;48.12
20160;BME280;50187;50.492;12.134;2023-07-31T06:32:35;97251.72;;;22.76;48.08
20160;BME280;50187;50.492;12.134;2023-07-31T06:35:02;97246.13;;;22.77;48.36
20160;BME280;50187;50.492;12.134;2023-07-31T06:37:29;97252.56;;;22.76;48.16
20160;BME280;50187;50.492;12.134;2023-07-31T06:39:56;97256.13;;;22.77;48.03
20160;BME280;50187;50.492;12.134;2023-07-31T06:42:22;97262.56;;;22.76;48.26
20160;BME280;50187;50.492;12.134;2023-07-31T06:44:49;97248.94;;;22.69;47.98
20160;BME280;50187;50.492;12.134;2023-07-31T06:47:16;97262.75;;;22.74;47.92
20160;BME280;50187;50.492;12.134;2023-07-31T06:49:42;97262.75;;;22.74;47.77
20160;BME280;50187;50.492;12.134;2023-07-31T06:52:09;97265.25;;;22.76;47.80
20160;BME280;50187;50.492;12.134;2023-07-31T06:54:37;97267.34;;;22.74;47.77
20160;BME280;50187;50.492;12.134;2023-07-31T06:57:04;97267.34;;;22.74;47.79
20160;BME280;50187;50.492;12.134;2023-07-31T06:59:31;97256.69;;;22.72;47.67
20160;BME280;50187;50.492;12.134;2023-07-31T07:01:57;97276.50;;;22.73;47.57
20160;BME280;50187;50.492;12.134;2023-07-31T07:04:24;97273.78;;;22.73;47.78
20160;BME280;50187;50.492;12.134;2023-07-31T07:06:51;97269.56;;;22.70;47.53
20160;BME280;50187;50.492;12.134;2023-07-31T07:09:17;97275.66;;;22.72;47.43
20160;BME280;50187;50.492;12.134;2023-07-31T07:11:44;97274.34;;;22.68;47.66
20160;BME280;50187;50.492;12.134;2023-07-31T07:14:11;97276.88;;;22.70;47.56
20160;BME280;50187;50.492;12.134;2023-07-31T07:16:38;97281.09;;;22.72;47.54
20160;BME280;50187;50.492;12.134;2023-07-31T07:19:08;97265.84;;;22.71;47.45
20160;BME280;50187;50.492;12.134;2023-07-31T07:21:34;97276.69;;;22.71;47.38
20160;BME280;50187;50.492;12.134;2023-07-31T07:24:01;97274.84;;;22.72;47.49
20160;BME280;50187;50.492;12.134;2023-07-31T07:26:27;97275.84;;;22.71;47.41
20160;BME280;50187;50.492;12.134;2023-07-31T07:28:54;97273.97;;;22.71;47.29
20160;BME280;50187;50.492;12.134;2023-07-31T07:31:21;97280.41;;;22.70;47.15
20160;BME280;50187;50.492;12.134;2023-07-31T07:33:48;97280.41;;;22.70;47.28
20160;BME280;50187;50.492;12.134;2023-07-31T07:36:14;97283.13;;;22.70;46.99
20160;BME280;50187;50.492;12.134;2023-07-31T07:38:41;97293.97;;;22.70;47.19
20160;BME280;50187;50.492;12.134;2023-07-31T07:41:08;97276.88;;;22.70;47.36
20160;BME280;50187;50.492;12.134;2023-07-31T07:43:35;97282.28;;;22.70;47.18
20160;BME280;50187;50.492;12.134;2023-07-31T07:46:01;97280.78;;;22.67;47.28
20160;BME280;50187;50.492;12.134;2023-07-31T07:48:28;97277.25;;;22.67;47.03
20160;BME280;50187;50.492;12.134;2023-07-31T07:50:55;97279.56;;;22.70;47.18
20160;BME280;50187;50.492;12.134;2023-07-31T07:53:21;97286.03;;;22.69;47.12
20160;BME280;50187;50.492;12.134;2023-07-31T07:55:48;97276.56;;;22.64;47.17
20160;BME280;50187;50.492;12.134;2023-07-31T07:58:14;97273.50;;;22.68;47.22
20160;BME280;50187;50.492;12.134;2023-07-31T08:00:41;97284.34;;;22.68;47.14
20160;BME280;50187;50.492;12.134;2023-07-31T08:03:08;97279.97;;;22.67;47.04
20160;BME280;50187;50.492;12.134;2023-07-31T08:05:34;97283.88;;;22.64;47.02
20160;BME280;50187;50.492;12.134;2023-07-31T08:08:01;97274.44;;;22.60;47.23
20160;BME280;50187;50.492;12.134;2023-07-31T08:10:27;97285.56;;;22.65;47.10
20160;BME280;50187;50.492;12.134;2023-07-31T08:12:54;97283.69;;;22.66;47.06
20160;BME280;50187;50.492;12.134;2023-07-31T08:15:22;97274.06;;;22.63;47.05
20160;BME280;50187;50.492;12.134;2023-07-31T08:17:48;97274.72;;;22.65;47.00
20160;BME280;50187;50.492;12.134;2023-07-31T08:20:15;97286.41;;;22.66;46.93
20160;BME280;50187;50.492;12.134;2023-07-31T08:22:41;97281.16;;;22.64;46.92
20160;BME280;50187;50.492;12.134;2023-07-31T08:25:08;97275.56;;;22.66;47.02
20160;BME280;50187;50.492;12.134;2023-07-31T08:27:35;97273.88;;;22.64;47.01
20160;BME280;50187;50.492;12.134;2023-07-31T08:30:01;97278.44;;;22.64;47.04
20160;BME280;50187;50.492;12.134;2023-07-31T08:32:28;97275.56;;;22.66;46.85
20160;BME280;50187;50.492;12.134;2023-07-31T08:34:55;97275.56;;;22.66;46.90
20160;BME280;50187;50.492;12.134;2023-07-31T08:37:21;97271.16;;;22.64;47.03
20160;BME280;50187;50.492;12.134;2023-07-31T08:39:48;97268.28;;;22.66;46.95
20160;BME280;50187;50.492;12.134;2023-07-31T08:42:15;97263.88;;;22.65;46.92
20160;BME280;50187;50.492;12.134;2023-07-31T08:44:43;97271.81;;;22.67;47.15
20160;BME280;50187;50.492;12.134;2023-07-31T08:47:10;97258.28;;;22.67;46.89
20160;BME280;50187;50.492;12.134;2023-07-31T08:49:38;97264.72;;;22.66;46.99
20160;BME280;50187;50.492;12.134;2023-07-31T08:52:05;97260.97;;;22.67;47.05
20160;BME280;50187;50.492;12.134;2023-07-31T08:54:32;97244.72;;;22.67;47.04
20160;BME280;50187;50.492;12.134;2023-07-31T08:57:00;97245.53;;;22.67;47.37
20160;BME280;50187;50.492;12.134;2023-07-31T08:59:31;97237.22;;;22.69;47.26
20160;BME280;50187;50.492;12.134;2023-07-31T09:02:08;97250.13;;;22.67;47.28
20160;BME280;50187;50.492;12.134;2023-07-31T09:04:35;97255.19;;;22.70;47.36
20160;BME280;50187;50.492;12.134;2023-07-31T09:07:03;97263.31;;;22.70;47.53
20160;BME280;50187;50.492;12.134;2023-07-31T09:09:31;97255.19;;;22.70;47.38
20160;BME280;50187;50.492;12.134;2023-07-31T09:11:58;97253.50;;;22.69;47.64
20160;BME280;50187;50.492;12.134;2023-07-31T09:14:26;97246.22;;;22.69;47.30
20160;BME280;50187;50.492;12.134;2023-07-31T09:16:57;97241.63;;;22.70;47.28
20160;BME280;50187;50.492;12.134;2023-07-31T09:19:32;97245.34;;;22.69;47.20
20160;BME280;50187;50.492;12.134;2023-07-31T09:22:00;97246.03;;;22.71;47.52
20160;BME280;50187;50.492;12.134;2023-07-31T09:24:28;97240.13;;;22.67;47.33
20160;BME280;50187;50.492;12.134;2023-07-31T09:26:57;97232.28;;;22.72;47.59
20160;BME280;50187;50.492;12.134;2023-07-31T09:29:26;97240.22;;;22.74;47.38
20160;BME280;50187;50.492;12.134;2023-07-31T09:31:53;97241.06;;;22.74;47.27
20160;BME280;50187;50.492;12.134;2023-07-31T09:34:29;97236.69;;;22.73;47.39
20160;BME280;50187;50.492;12.134;2023-07-31T09:36:58;97232.72;;;22.76;47.25
20160;BME280;50187;50.492;12.134;2023-07-31T09:39:27;97234.41;;;22.77;47.44
20160;BME280;50187;50.492;12.134;2023-07-31T09:41:56;97237.13;;;22.77;47.52
20160;BME280;50187;50.492;12.134;2023-07-31T09:44:41;97234.41;;;22.77;47.52
20160;BME280;50187;50.492;12.134;2023-07-31T09:47:28;97235.44;;;22.76;47.24
20160;BME280;50187;50.492;12.134;2023-07-31T09:49:57;97227.31;;;22.76;47.47
20160;BME280;50187;50.492;12.134;2023-07-31T09:52:25;97236.50;;;22.75;47.39
20160;BME280;50187;50.492;12.134;2023-07-31T09:54:52;97228.06;;;22.70;47.41
20160;BME280;50187;50.492;12.134;2023-07-31T09:57:21;97228.53;;;22.73;47.36
20160;BME280;50187;50.492;12.134;2023-07-31T09:59:48;97233.09;;;22.73;47.30
20160;BME280;50187;50.492;12.134;2023-07-31T10:02:21;97228.53;;;22.73;47.57
20160;BME280;50187;50.492;12.134;2023-07-31T10:04:51;97218.72;;;22.72;47.52
20160;BME280;50187;50.492;12.134;2023-07-31T10:07:20;97214.50;;;22.70;47.37
20160;BME280;50187;50.492;12.134;2023-07-31T10:09:49;97202.66;;;22.71;47.40
20160;BME280;50187;50.492;12.134;2023-07-31T10:12:19;97195.16;;;22.73;47.49
20160;BME280;50187;50.492;12.134;2023-07-31T10:14:47;97189.91;;;22.71;47.46
20160;BME280;50187;50.492;12.134;2023-07-31T10:17:13;97187.88;;;22.73;47.44
20160;BME280;50187;50.492;12.134;2023-07-31T10:19:41;97194.69;;;22.69;47.39
20160;BME280;50187;50.492;12.134;2023-07-31T10:22:08;97186.00;;;22.74;47.63
20160;BME280;50187;50.492;12.134;2023-07-31T10:24:39;97187.00;;;22.73;47.61
20160;BME280;50187;50.492;12.134;2023-07-31T10:27:07;97183.91;;;22.76;47.62
20160;BME280;50187;50.492;12.134;2023-07-31T10:29:34;97183.91;;;22.76;47.29
20160;BME280;50187;50.492;12.134;2023-07-31T10:32:01;97178.50;;;22.76;47.59
20160;BME280;50187;50.492;12.134;2023-07-31T10:34:28;97187.50;;;22.76;47.49
20160;BME280;50187;50.492;12.134;2023-07-31T10:40:01;97177.66;;;22.75;47.68
20160;BME280;50187;50.492;12.134;2023-07-31T10:42:33;97174.75;;;22.77;47.64
20160;BME280;50187;50.492;12.134;2023-07-31T10:45:03;97171.41;;;22.75;47.65
20160;BME280;50187;50.492;12.134;2023-07-31T10:47:31;97176.84;;;22.75;47.64
20160;BME280;50187;50.492;12.134;2023-07-31T10:50:12;97189.34;;;22.76;47.46
20160;BME280;50187;50.492;12.134;2023-07-31T10:52:39;97177.84;;;22.74;47.77
20160;BME280;50187;50.492;12.134;2023-07-31T10:55:14;97173.06;;;22.76;47.38
20160;BME280;50187;50.492;12.134;2023-07-31T10:57:44;97170.19;;;22.77;47.71
20160;BME280;50187;50.492;12.134;2023-07-31T11:00:20;97168.50;;;22.76;47.65
20160;BME280;50187;50.492;12.134;2023-07-31T11:03:07;97160.19;;;22.78;47.60
20160;BME280;50187;50.492;12.134;2023-07-31T11:05:52;97166.63;;;22.77;47.54
20160;BME280;50187;50.492;12.134;2023-07-31T11:08:24;97163.09;;;22.76;47.61
20160;BME280;50187;50.492;12.134;2023-07-31T11:13:49;97166.44;;;22.78;47.54
20160;BME280;50187;50.492;12.134;2023-07-31T11:16:17;97162.91;;;22.78;47.34
20160;BME280;50187;50.492;12.134;2023-07-31T11:18:46;97157.28;;;22.79;47.44
20160;BME280;50187;50.492;12.134;2023-07-31T11:21:18;97151.03;;;22.79;47.61
20160;BME280;50187;50.492;12.134;2023-07-31T11:23:46;97141.84;;;22.80;47.58
20160;BME280;50187;50.492;12.134;2023-07-31T11:26:14;97141.84;;;22.80;47.67
20160;BME280;50187;50.492;12.134;2023-07-31T11:28:40;97148.50;;;22.77;47.49
20160;BME280;50187;50.492;12.134;2023-07-31T11:31:10;97134.56;;;22.80;47.59
20160;BME280;50187;50.492;12.134;2023-07-31T11:33:37;97135.41;;;22.81;47.69
20160;BME280;50187;50.492;12.134;2023-07-31T11:36:04;97141.00;;;22.79;47.57
20160;BME280;50187;50.492;12.134;2023-07-31T11:38:35;97141.84;;;22.80;47.60
20160;BME280;50187;50.492;12.134;2023-07-31T11:41:03;97135.50;;;22.73;47.74
20160;BME280;50187;50.492;12.134;2023-07-31T11:43:33;97137.47;;;22.79;47.52
20160;BME280;50187;50.492;12.134;2023-07-31T11:46:01;97135.59;;;22.79;47.52
20160;BME280;50187;50.492;12.134;2023-07-31T11:48:36;97120.53;;;22.77;47.58
20160;BME280;50187;50.492;12.134;2023-07-31T11:51:04;97124.75;;;22.79;47.67
20160;BME280;50187;50.492;12.134;2023-07-31T11:53:43;97133.91;;;22.78;47.57
20160;BME280;50187;50.492;12.134;2023-07-31T11:56:13;97118.69;;;22.77;47.79
20160;BME280;50187;50.492;12.134;2023-07-31T11:58:40;97117.19;;;22.75;47.54
20160;BME280;50187;50.492;12.134;2023-07-31T12:01:09;97127.84;;;22.76;47.72
20160;BME280;50187;50.492;12.134;2023-07-31T12:03:36;97113.41;;;22.76;47.99
20160;BME280;50187;50.492;12.134;2023-07-31T12:06:03;97114.09;;;22.78;48.77
20160;BME280;50187;50.492;12.134;2023-07-31T12:08:30;97110.16;;;22.80;48.74
20160;BME280;50187;50.492;12.134;2023-07-31T12:11:04;97106.41;;;22.81;49.04
20160;BME280;50187;50.492;12.134;2023-07-31T12:13:32;97097.44;;;22.81;48.72
20160;BME280;50187;50.492;12.134;2023-07-31T12:16:00;97098.72;;;22.85;48.32
20160;BME280;50187;50.492;12.134;2023-07-31T12:18:31;97099.56;;;22.86;48.15
20160;BME280;50187;50.492;12.134;2023-07-31T12:21:01;97090.41;;;22.87;48.21
20160;BME280;50187;50.492;12.134;2023-07-31T12:23:32;97092.91;;;22.88;48.06
20160;BME280;50187;50.492;12.134;2023-07-31T12:28:46;97101.91;;;22.89;47.66
20160;BME280;50187;50.492;12.134;2023-07-31T12:31:18;97088.34;;;22.89;47.73
20160;BME280;50187;50.492;12.134;2023-07-31T12:33:46;97091.25;;;22.87;47.72
20160;BME280;50187;50.492;12.134;2023-07-31T12:36:15;97091.91;;;22.89;47.74
20160;BME280;50187;50.492;12.134;2023-07-31T12:38:43;97079.34;;;22.88;47.76
20160;BME280;50187;50.492;12.134;2023-07-31T12:41:11;97071.03;;;22.90;47.76
20160;BME280;50187;50.492;12.134;2023-07-31T12:43:40;97068.31;;;22.90;47.72
20160;BME280;50187;50.492;12.134;2023-07-31T12:46:07;97069.19;;;22.90;47.77
20160;BME280;50187;50.492;12.134;2023-07-31T12:48:34;97068.31;;;22.90;47.78
20160;BME280;50187;50.492;12.134;2023-07-31T12:51:01;97073.38;;;22.93;47.59
20160;BME280;50187;50.492;12.134;2023-07-31T12:53:28;97067.09;;;22.92;47.77
20160;BME280;50187;50.492;12.134;2023-07-31T12:55:56;97064.38;;;22.92;47.48
20160;BME280;50187;50.492;12.134;2023-07-31T12:58:23;97069.81;;;22.92;47.78
20160;BME280;50187;50.492;12.134;2023-07-31T13:00:50;97069.81;;;22.92;47.57
20160;BME280;50187;50.492;12.134;2023-07-31T13:03:16;97069.19;;;22.90;47.79
20160;BME280;50187;50.492;12.134;2023-07-31T13:05:43;97073.53;;;22.91;47.80
20160;BME280;50187;50.492;12.134;2023-07-31T13:08:10;97080.66;;;22.92;47.76
20160;BME280;50187;50.492;12.134;2023-07-31T13:10:36;97072.53;;;22.92;47.72